<?xml version="1.0" encoding="UTF-8" standalone="no" ?>
<gpx xmlns="http://www.topografix.com/GPX/1/1" xmlns:xsi="http://www.w3.org/2001/XMLSchema-instance" xsi:schemaLocation="http://www.topografix.com/GPX/1/1 http://www.topografix.com/GPX/1/1/gpx.xsd" version="1.1" creator="VisuGPX - https://www.visugpx.com">
  <metadata>
    <name>Pointe de Curtillet</name>
    <desc><![CDATA[grp_trc:]]></desc>
  </metadata>
  <trk>
    <name><![CDATA[Pointe de Curtillet- 26 mai 2023]]></name>
    <cmt><![CDATA[09:25:11]]></cmt>
    <desc><![CDATA[comment ...
Type : [nouvelles]]]></desc>
    <trkseg>
      <trkpt lat="45.67339" lon="6.20045">
        <ele>1084</ele>
        <time>2023-05-26T07:25:12Z</time>
      </trkpt>
      <trkpt lat="45.67339" lon="6.20045">
        <ele>1084</ele>
        <time>2023-05-26T07:25:12Z</time>
      </trkpt>
      <trkpt lat="45.67339" lon="6.20032">
        <ele>1079</ele>
        <time>2023-05-26T07:29:16Z</time>
      </trkpt>
      <trkpt lat="45.67336" lon="6.20018">
        <ele>1069</ele>
        <time>2023-05-26T07:29:26Z</time>
      </trkpt>
      <trkpt lat="45.67339" lon="6.20004">
        <ele>1067</ele>
        <time>2023-05-26T07:29:41Z</time>
      </trkpt>
      <trkpt lat="45.67345" lon="6.19997">
        <ele>1071</ele>
        <time>2023-05-26T07:30:42Z</time>
      </trkpt>
      <trkpt lat="45.67353" lon="6.2">
        <ele>1071</ele>
        <time>2023-05-26T07:31:13Z</time>
      </trkpt>
      <trkpt lat="45.67361" lon="6.20003">
        <ele>1072</ele>
        <time>2023-05-26T07:31:51Z</time>
      </trkpt>
      <trkpt lat="45.67376" lon="6.20029">
        <ele>1075</ele>
        <time>2023-05-26T07:32:17Z</time>
      </trkpt>
      <trkpt lat="45.67385" lon="6.20038">
        <ele>1077</ele>
        <time>2023-05-26T07:32:31Z</time>
      </trkpt>
      <trkpt lat="45.67391" lon="6.20046">
        <ele>1079</ele>
        <time>2023-05-26T07:32:41Z</time>
      </trkpt>
      <trkpt lat="45.67395" lon="6.20055">
        <ele>1081</ele>
        <time>2023-05-26T07:32:51Z</time>
      </trkpt>
      <trkpt lat="45.67402" lon="6.20079">
        <ele>1091</ele>
        <time>2023-05-26T07:33:13Z</time>
      </trkpt>
      <trkpt lat="45.67402" lon="6.2009">
        <ele>1093</ele>
        <time>2023-05-26T07:33:20Z</time>
      </trkpt>
      <trkpt lat="45.67416" lon="6.20129">
        <ele>1103</ele>
        <time>2023-05-26T07:33:59Z</time>
      </trkpt>
      <trkpt lat="45.67425" lon="6.20162">
        <ele>1100</ele>
        <time>2023-05-26T07:34:29Z</time>
      </trkpt>
      <trkpt lat="45.67431" lon="6.20186">
        <ele>1104</ele>
        <time>2023-05-26T07:34:58Z</time>
      </trkpt>
      <trkpt lat="45.67433" lon="6.20213">
        <ele>1108</ele>
        <time>2023-05-26T07:35:31Z</time>
      </trkpt>
      <trkpt lat="45.67436" lon="6.20225">
        <ele>1112</ele>
        <time>2023-05-26T07:35:47Z</time>
      </trkpt>
      <trkpt lat="45.67439" lon="6.20239">
        <ele>1115</ele>
        <time>2023-05-26T07:36:02Z</time>
      </trkpt>
      <trkpt lat="45.67441" lon="6.20251">
        <ele>1120</ele>
        <time>2023-05-26T07:36:17Z</time>
      </trkpt>
      <trkpt lat="45.67444" lon="6.20264">
        <ele>1123</ele>
        <time>2023-05-26T07:36:35Z</time>
      </trkpt>
      <trkpt lat="45.67438" lon="6.20289">
        <ele>1129</ele>
        <time>2023-05-26T07:37:12Z</time>
      </trkpt>
      <trkpt lat="45.67439" lon="6.20315">
        <ele>1131</ele>
        <time>2023-05-26T07:37:44Z</time>
      </trkpt>
      <trkpt lat="45.6744" lon="6.20328">
        <ele>1131</ele>
        <time>2023-05-26T07:38:00Z</time>
      </trkpt>
      <trkpt lat="45.67446" lon="6.20339">
        <ele>1131</ele>
        <time>2023-05-26T07:38:15Z</time>
      </trkpt>
      <trkpt lat="45.67464" lon="6.20328">
        <ele>1129</ele>
        <time>2023-05-26T07:38:54Z</time>
      </trkpt>
      <trkpt lat="45.6747" lon="6.20309">
        <ele>1124</ele>
        <time>2023-05-26T07:39:37Z</time>
      </trkpt>
      <trkpt lat="45.67472" lon="6.20299">
        <ele>1123</ele>
        <time>2023-05-26T07:39:55Z</time>
      </trkpt>
      <trkpt lat="45.67482" lon="6.20283">
        <ele>1127</ele>
        <time>2023-05-26T07:40:22Z</time>
      </trkpt>
      <trkpt lat="45.67488" lon="6.20277">
        <ele>1129</ele>
        <time>2023-05-26T07:40:33Z</time>
      </trkpt>
      <trkpt lat="45.67495" lon="6.20266">
        <ele>1135</ele>
        <time>2023-05-26T07:41:01Z</time>
      </trkpt>
      <trkpt lat="45.67502" lon="6.20263">
        <ele>1137</ele>
        <time>2023-05-26T07:41:15Z</time>
      </trkpt>
      <trkpt lat="45.67512" lon="6.20268">
        <ele>1139</ele>
        <time>2023-05-26T07:41:46Z</time>
      </trkpt>
      <trkpt lat="45.67516" lon="6.20282">
        <ele>1147</ele>
        <time>2023-05-26T07:42:17Z</time>
      </trkpt>
      <trkpt lat="45.67519" lon="6.20295">
        <ele>1149</ele>
        <time>2023-05-26T07:42:36Z</time>
      </trkpt>
      <trkpt lat="45.67523" lon="6.20323">
        <ele>1144</ele>
        <time>2023-05-26T07:43:10Z</time>
      </trkpt>
      <trkpt lat="45.67527" lon="6.20331">
        <ele>1153</ele>
        <time>2023-05-26T07:43:31Z</time>
      </trkpt>
      <trkpt lat="45.67541" lon="6.20351">
        <ele>1165</ele>
        <time>2023-05-26T07:44:27Z</time>
      </trkpt>
      <trkpt lat="45.67558" lon="6.20374">
        <ele>1171</ele>
        <time>2023-05-26T07:45:24Z</time>
      </trkpt>
      <trkpt lat="45.67566" lon="6.2038">
        <ele>1180</ele>
        <time>2023-05-26T07:45:49Z</time>
      </trkpt>
      <trkpt lat="45.67581" lon="6.20379">
        <ele>1187</ele>
        <time>2023-05-26T07:46:19Z</time>
      </trkpt>
      <trkpt lat="45.67596" lon="6.2038">
        <ele>1191</ele>
        <time>2023-05-26T07:46:51Z</time>
      </trkpt>
      <trkpt lat="45.67603" lon="6.20381">
        <ele>1193</ele>
        <time>2023-05-26T07:47:06Z</time>
      </trkpt>
      <trkpt lat="45.67627" lon="6.20394">
        <ele>1191</ele>
        <time>2023-05-26T07:47:43Z</time>
      </trkpt>
      <trkpt lat="45.67635" lon="6.20399">
        <ele>1191</ele>
        <time>2023-05-26T07:47:57Z</time>
      </trkpt>
      <trkpt lat="45.67647" lon="6.20407">
        <ele>1196</ele>
        <time>2023-05-26T07:48:16Z</time>
      </trkpt>
      <trkpt lat="45.67658" lon="6.20422">
        <ele>1203</ele>
        <time>2023-05-26T07:48:41Z</time>
      </trkpt>
      <trkpt lat="45.67665" lon="6.20426">
        <ele>1202</ele>
        <time>2023-05-26T07:48:52Z</time>
      </trkpt>
      <trkpt lat="45.67676" lon="6.20428">
        <ele>1203</ele>
        <time>2023-05-26T07:49:13Z</time>
      </trkpt>
      <trkpt lat="45.67696" lon="6.20441">
        <ele>1207</ele>
        <time>2023-05-26T07:49:56Z</time>
      </trkpt>
      <trkpt lat="45.67701" lon="6.20448">
        <ele>1207</ele>
        <time>2023-05-26T07:50:08Z</time>
      </trkpt>
      <trkpt lat="45.67711" lon="6.20455">
        <ele>1209</ele>
        <time>2023-05-26T07:50:24Z</time>
      </trkpt>
      <trkpt lat="45.67719" lon="6.20466">
        <ele>1217</ele>
        <time>2023-05-26T07:50:52Z</time>
      </trkpt>
      <trkpt lat="45.67727" lon="6.20468">
        <ele>1222</ele>
        <time>2023-05-26T07:51:01Z</time>
      </trkpt>
      <trkpt lat="45.67734" lon="6.20459">
        <ele>1227</ele>
        <time>2023-05-26T07:51:33Z</time>
      </trkpt>
      <trkpt lat="45.67739" lon="6.2045">
        <ele>1226</ele>
        <time>2023-05-26T07:51:47Z</time>
      </trkpt>
      <trkpt lat="45.67745" lon="6.20445">
        <ele>1225</ele>
        <time>2023-05-26T07:51:58Z</time>
      </trkpt>
      <trkpt lat="45.67756" lon="6.20442">
        <ele>1225</ele>
        <time>2023-05-26T07:52:14Z</time>
      </trkpt>
      <trkpt lat="45.67771" lon="6.20443">
        <ele>1224</ele>
        <time>2023-05-26T07:52:36Z</time>
      </trkpt>
      <trkpt lat="45.67778" lon="6.20454">
        <ele>1225</ele>
        <time>2023-05-26T07:52:57Z</time>
      </trkpt>
      <trkpt lat="45.67778" lon="6.20479">
        <ele>1233</ele>
        <time>2023-05-26T07:53:32Z</time>
      </trkpt>
      <trkpt lat="45.67774" lon="6.20488">
        <ele>1231</ele>
        <time>2023-05-26T07:53:42Z</time>
      </trkpt>
      <trkpt lat="45.67772" lon="6.20498">
        <ele>1234</ele>
        <time>2023-05-26T07:53:56Z</time>
      </trkpt>
      <trkpt lat="45.67776" lon="6.20508">
        <ele>1234</ele>
        <time>2023-05-26T07:54:14Z</time>
      </trkpt>
      <trkpt lat="45.6779" lon="6.20513">
        <ele>1240</ele>
        <time>2023-05-26T07:54:50Z</time>
      </trkpt>
      <trkpt lat="45.67809" lon="6.20516">
        <ele>1246</ele>
        <time>2023-05-26T07:55:23Z</time>
      </trkpt>
      <trkpt lat="45.67816" lon="6.20513">
        <ele>1249</ele>
        <time>2023-05-26T07:55:37Z</time>
      </trkpt>
      <trkpt lat="45.67823" lon="6.2051">
        <ele>1251</ele>
        <time>2023-05-26T07:55:47Z</time>
      </trkpt>
      <trkpt lat="45.67834" lon="6.2051">
        <ele>1252</ele>
        <time>2023-05-26T07:56:05Z</time>
      </trkpt>
      <trkpt lat="45.67857" lon="6.2051">
        <ele>1265</ele>
        <time>2023-05-26T07:57:11Z</time>
      </trkpt>
      <trkpt lat="45.67864" lon="6.20506">
        <ele>1264</ele>
        <time>2023-05-26T07:57:23Z</time>
      </trkpt>
      <trkpt lat="45.6788" lon="6.20489">
        <ele>1265</ele>
        <time>2023-05-26T07:58:04Z</time>
      </trkpt>
      <trkpt lat="45.67887" lon="6.20485">
        <ele>1265</ele>
        <time>2023-05-26T07:58:14Z</time>
      </trkpt>
      <trkpt lat="45.67895" lon="6.20475">
        <ele>1265</ele>
        <time>2023-05-26T07:58:34Z</time>
      </trkpt>
      <trkpt lat="45.67903" lon="6.20466">
        <ele>1269</ele>
        <time>2023-05-26T07:58:58Z</time>
      </trkpt>
      <trkpt lat="45.67922" lon="6.20465">
        <ele>1276</ele>
        <time>2023-05-26T07:59:29Z</time>
      </trkpt>
      <trkpt lat="45.67929" lon="6.20467">
        <ele>1276</ele>
        <time>2023-05-26T07:59:44Z</time>
      </trkpt>
      <trkpt lat="45.67934" lon="6.20476">
        <ele>1279</ele>
        <time>2023-05-26T07:59:59Z</time>
      </trkpt>
      <trkpt lat="45.67938" lon="6.2049">
        <ele>1278</ele>
        <time>2023-05-26T08:00:24Z</time>
      </trkpt>
      <trkpt lat="45.6794" lon="6.20505">
        <ele>1283</ele>
        <time>2023-05-26T08:00:48Z</time>
      </trkpt>
      <trkpt lat="45.67939" lon="6.2052">
        <ele>1286</ele>
        <time>2023-05-26T08:01:09Z</time>
      </trkpt>
      <trkpt lat="45.6795" lon="6.20532">
        <ele>1289</ele>
        <time>2023-05-26T08:01:50Z</time>
      </trkpt>
      <trkpt lat="45.67961" lon="6.20539">
        <ele>1289</ele>
        <time>2023-05-26T08:02:15Z</time>
      </trkpt>
      <trkpt lat="45.67968" lon="6.2054">
        <ele>1294</ele>
        <time>2023-05-26T08:02:35Z</time>
      </trkpt>
      <trkpt lat="45.67981" lon="6.2053">
        <ele>1304</ele>
        <time>2023-05-26T08:03:04Z</time>
      </trkpt>
      <trkpt lat="45.67991" lon="6.20529">
        <ele>1308</ele>
        <time>2023-05-26T08:03:25Z</time>
      </trkpt>
      <trkpt lat="45.67998" lon="6.2054">
        <ele>1306</ele>
        <time>2023-05-26T08:04:56Z</time>
      </trkpt>
      <trkpt lat="45.68003" lon="6.20555">
        <ele>1302</ele>
        <time>2023-05-26T08:05:18Z</time>
      </trkpt>
      <trkpt lat="45.68001" lon="6.20565">
        <ele>1300</ele>
        <time>2023-05-26T08:05:34Z</time>
      </trkpt>
      <trkpt lat="45.68004" lon="6.2058">
        <ele>1303</ele>
        <time>2023-05-26T08:05:57Z</time>
      </trkpt>
      <trkpt lat="45.68004" lon="6.2059">
        <ele>1308</ele>
        <time>2023-05-26T08:06:19Z</time>
      </trkpt>
      <trkpt lat="45.68009" lon="6.20599">
        <ele>1311</ele>
        <time>2023-05-26T08:06:35Z</time>
      </trkpt>
      <trkpt lat="45.68015" lon="6.20606">
        <ele>1316</ele>
        <time>2023-05-26T08:07:49Z</time>
      </trkpt>
      <trkpt lat="45.68022" lon="6.20611">
        <ele>1316</ele>
        <time>2023-05-26T08:08:10Z</time>
      </trkpt>
      <trkpt lat="45.68029" lon="6.20615">
        <ele>1313</ele>
        <time>2023-05-26T08:08:21Z</time>
      </trkpt>
      <trkpt lat="45.68039" lon="6.20623">
        <ele>1319</ele>
        <time>2023-05-26T08:08:39Z</time>
      </trkpt>
      <trkpt lat="45.68052" lon="6.20648">
        <ele>1318</ele>
        <time>2023-05-26T08:09:11Z</time>
      </trkpt>
      <trkpt lat="45.6806" lon="6.2066">
        <ele>1321</ele>
        <time>2023-05-26T08:09:34Z</time>
      </trkpt>
      <trkpt lat="45.68068" lon="6.20675">
        <ele>1315</ele>
        <time>2023-05-26T08:09:55Z</time>
      </trkpt>
      <trkpt lat="45.68073" lon="6.20685">
        <ele>1327</ele>
        <time>2023-05-26T08:10:14Z</time>
      </trkpt>
      <trkpt lat="45.68084" lon="6.20682">
        <ele>1334</ele>
        <time>2023-05-26T08:10:31Z</time>
      </trkpt>
      <trkpt lat="45.68092" lon="6.20678">
        <ele>1336</ele>
        <time>2023-05-26T08:10:48Z</time>
      </trkpt>
      <trkpt lat="45.68107" lon="6.20679">
        <ele>1345</ele>
        <time>2023-05-26T08:11:14Z</time>
      </trkpt>
      <trkpt lat="45.68118" lon="6.20676">
        <ele>1349</ele>
        <time>2023-05-26T08:11:30Z</time>
      </trkpt>
      <trkpt lat="45.68124" lon="6.20672">
        <ele>1352</ele>
        <time>2023-05-26T08:11:44Z</time>
      </trkpt>
      <trkpt lat="45.6813" lon="6.20666">
        <ele>1356</ele>
        <time>2023-05-26T08:12:00Z</time>
      </trkpt>
      <trkpt lat="45.68137" lon="6.20662">
        <ele>1359</ele>
        <time>2023-05-26T08:12:12Z</time>
      </trkpt>
      <trkpt lat="45.68145" lon="6.20667">
        <ele>1359</ele>
        <time>2023-05-26T08:12:33Z</time>
      </trkpt>
      <trkpt lat="45.68144" lon="6.20682">
        <ele>1359</ele>
        <time>2023-05-26T08:12:56Z</time>
      </trkpt>
      <trkpt lat="45.68146" lon="6.20692">
        <ele>1360</ele>
        <time>2023-05-26T08:13:09Z</time>
      </trkpt>
      <trkpt lat="45.68154" lon="6.20694">
        <ele>1360</ele>
        <time>2023-05-26T08:19:46Z</time>
      </trkpt>
      <trkpt lat="45.68165" lon="6.2069">
        <ele>1366</ele>
        <time>2023-05-26T08:20:15Z</time>
      </trkpt>
      <trkpt lat="45.68175" lon="6.20689">
        <ele>1370</ele>
        <time>2023-05-26T08:20:46Z</time>
      </trkpt>
      <trkpt lat="45.68181" lon="6.20693">
        <ele>1372</ele>
        <time>2023-05-26T08:21:04Z</time>
      </trkpt>
      <trkpt lat="45.68189" lon="6.20696">
        <ele>1374</ele>
        <time>2023-05-26T08:21:18Z</time>
      </trkpt>
      <trkpt lat="45.68199" lon="6.2069">
        <ele>1378</ele>
        <time>2023-05-26T08:21:48Z</time>
      </trkpt>
      <trkpt lat="45.68209" lon="6.20682">
        <ele>1387</ele>
        <time>2023-05-26T08:22:20Z</time>
      </trkpt>
      <trkpt lat="45.68224" lon="6.20689">
        <ele>1388</ele>
        <time>2023-05-26T08:22:54Z</time>
      </trkpt>
      <trkpt lat="45.68242" lon="6.20705">
        <ele>1386</ele>
        <time>2023-05-26T08:23:38Z</time>
      </trkpt>
      <trkpt lat="45.68252" lon="6.20713">
        <ele>1391</ele>
        <time>2023-05-26T08:24:12Z</time>
      </trkpt>
      <trkpt lat="45.68259" lon="6.20715">
        <ele>1393</ele>
        <time>2023-05-26T08:24:28Z</time>
      </trkpt>
      <trkpt lat="45.68266" lon="6.2072">
        <ele>1394</ele>
        <time>2023-05-26T08:24:43Z</time>
      </trkpt>
      <trkpt lat="45.68276" lon="6.20735">
        <ele>1407</ele>
        <time>2023-05-26T08:25:18Z</time>
      </trkpt>
      <trkpt lat="45.68283" lon="6.2074">
        <ele>1410</ele>
        <time>2023-05-26T08:25:32Z</time>
      </trkpt>
      <trkpt lat="45.68288" lon="6.20746">
        <ele>1416</ele>
        <time>2023-05-26T08:25:47Z</time>
      </trkpt>
      <trkpt lat="45.68305" lon="6.20756">
        <ele>1421</ele>
        <time>2023-05-26T08:26:22Z</time>
      </trkpt>
      <trkpt lat="45.68314" lon="6.20759">
        <ele>1421</ele>
        <time>2023-05-26T08:26:39Z</time>
      </trkpt>
      <trkpt lat="45.68321" lon="6.20761">
        <ele>1424</ele>
        <time>2023-05-26T08:26:52Z</time>
      </trkpt>
      <trkpt lat="45.68339" lon="6.20771">
        <ele>1421</ele>
        <time>2023-05-26T08:27:23Z</time>
      </trkpt>
      <trkpt lat="45.68346" lon="6.20771">
        <ele>1425</ele>
        <time>2023-05-26T08:27:34Z</time>
      </trkpt>
      <trkpt lat="45.68356" lon="6.20772">
        <ele>1427</ele>
        <time>2023-05-26T08:27:51Z</time>
      </trkpt>
      <trkpt lat="45.68372" lon="6.20784">
        <ele>1431</ele>
        <time>2023-05-26T08:28:34Z</time>
      </trkpt>
      <trkpt lat="45.68389" lon="6.20797">
        <ele>1430</ele>
        <time>2023-05-26T08:29:11Z</time>
      </trkpt>
      <trkpt lat="45.68398" lon="6.20808">
        <ele>1437</ele>
        <time>2023-05-26T08:29:38Z</time>
      </trkpt>
      <trkpt lat="45.68406" lon="6.20808">
        <ele>1441</ele>
        <time>2023-05-26T08:29:51Z</time>
      </trkpt>
      <trkpt lat="45.68417" lon="6.20805">
        <ele>1443</ele>
        <time>2023-05-26T08:30:15Z</time>
      </trkpt>
      <trkpt lat="45.68423" lon="6.2081">
        <ele>1445</ele>
        <time>2023-05-26T08:30:28Z</time>
      </trkpt>
      <trkpt lat="45.6844" lon="6.20821">
        <ele>1451</ele>
        <time>2023-05-26T08:31:10Z</time>
      </trkpt>
      <trkpt lat="45.68457" lon="6.2083">
        <ele>1459</ele>
        <time>2023-05-26T08:31:46Z</time>
      </trkpt>
      <trkpt lat="45.68464" lon="6.20837">
        <ele>1459</ele>
        <time>2023-05-26T08:33:41Z</time>
      </trkpt>
      <trkpt lat="45.6847" lon="6.20849">
        <ele>1467</ele>
        <time>2023-05-26T08:34:04Z</time>
      </trkpt>
      <trkpt lat="45.68483" lon="6.2086">
        <ele>1472</ele>
        <time>2023-05-26T08:34:39Z</time>
      </trkpt>
      <trkpt lat="45.6849" lon="6.2087">
        <ele>1474</ele>
        <time>2023-05-26T08:35:01Z</time>
      </trkpt>
      <trkpt lat="45.68496" lon="6.20877">
        <ele>1478</ele>
        <time>2023-05-26T08:35:18Z</time>
      </trkpt>
      <trkpt lat="45.68505" lon="6.20885">
        <ele>1479</ele>
        <time>2023-05-26T08:35:38Z</time>
      </trkpt>
      <trkpt lat="45.68515" lon="6.20888">
        <ele>1478</ele>
        <time>2023-05-26T08:36:09Z</time>
      </trkpt>
      <trkpt lat="45.68523" lon="6.20887">
        <ele>1479</ele>
        <time>2023-05-26T08:36:21Z</time>
      </trkpt>
      <trkpt lat="45.68542" lon="6.20891">
        <ele>1485</ele>
        <time>2023-05-26T08:36:53Z</time>
      </trkpt>
      <trkpt lat="45.68552" lon="6.20898">
        <ele>1486</ele>
        <time>2023-05-26T08:37:18Z</time>
      </trkpt>
      <trkpt lat="45.68565" lon="6.20908">
        <ele>1490</ele>
        <time>2023-05-26T08:37:45Z</time>
      </trkpt>
      <trkpt lat="45.68576" lon="6.20923">
        <ele>1492</ele>
        <time>2023-05-26T08:38:09Z</time>
      </trkpt>
      <trkpt lat="45.68581" lon="6.2093">
        <ele>1495</ele>
        <time>2023-05-26T08:38:22Z</time>
      </trkpt>
      <trkpt lat="45.68593" lon="6.20941">
        <ele>1498</ele>
        <time>2023-05-26T08:40:44Z</time>
      </trkpt>
      <trkpt lat="45.68593" lon="6.20952">
        <ele>1499</ele>
        <time>2023-05-26T08:52:16Z</time>
      </trkpt>
      <trkpt lat="45.68581" lon="6.20965">
        <ele>1498</ele>
        <time>2023-05-26T08:52:29Z</time>
      </trkpt>
      <trkpt lat="45.68576" lon="6.20974">
        <ele>1497</ele>
        <time>2023-05-26T08:52:38Z</time>
      </trkpt>
      <trkpt lat="45.68559" lon="6.20983">
        <ele>1499</ele>
        <time>2023-05-26T08:53:09Z</time>
      </trkpt>
      <trkpt lat="45.68553" lon="6.20989">
        <ele>1502</ele>
        <time>2023-05-26T08:53:19Z</time>
      </trkpt>
      <trkpt lat="45.68546" lon="6.21018">
        <ele>1501</ele>
        <time>2023-05-26T08:53:49Z</time>
      </trkpt>
      <trkpt lat="45.68543" lon="6.2103">
        <ele>1502</ele>
        <time>2023-05-26T08:53:59Z</time>
      </trkpt>
      <trkpt lat="45.6854" lon="6.2104">
        <ele>1506</ele>
        <time>2023-05-26T08:54:11Z</time>
      </trkpt>
      <trkpt lat="45.68526" lon="6.2106">
        <ele>1507</ele>
        <time>2023-05-26T08:54:48Z</time>
      </trkpt>
      <trkpt lat="45.68518" lon="6.21068">
        <ele>1504</ele>
        <time>2023-05-26T08:55:03Z</time>
      </trkpt>
      <trkpt lat="45.68514" lon="6.2108">
        <ele>1505</ele>
        <time>2023-05-26T08:55:21Z</time>
      </trkpt>
      <trkpt lat="45.68522" lon="6.21087">
        <ele>1506</ele>
        <time>2023-05-26T08:55:34Z</time>
      </trkpt>
      <trkpt lat="45.6854" lon="6.21093">
        <ele>1513</ele>
        <time>2023-05-26T08:55:56Z</time>
      </trkpt>
      <trkpt lat="45.68546" lon="6.21104">
        <ele>1515</ele>
        <time>2023-05-26T08:56:09Z</time>
      </trkpt>
      <trkpt lat="45.68554" lon="6.21109">
        <ele>1516</ele>
        <time>2023-05-26T08:56:26Z</time>
      </trkpt>
      <trkpt lat="45.68558" lon="6.21122">
        <ele>1516</ele>
        <time>2023-05-26T08:56:39Z</time>
      </trkpt>
      <trkpt lat="45.68565" lon="6.21161">
        <ele>1532</ele>
        <time>2023-05-26T08:57:26Z</time>
      </trkpt>
      <trkpt lat="45.68568" lon="6.21173">
        <ele>1541</ele>
        <time>2023-05-26T08:57:44Z</time>
      </trkpt>
      <trkpt lat="45.68575" lon="6.21184">
        <ele>1544</ele>
        <time>2023-05-26T08:58:03Z</time>
      </trkpt>
      <trkpt lat="45.68575" lon="6.21211">
        <ele>1529</ele>
        <time>2023-05-26T08:58:35Z</time>
      </trkpt>
      <trkpt lat="45.68581" lon="6.21222">
        <ele>1528</ele>
        <time>2023-05-26T08:58:53Z</time>
      </trkpt>
      <trkpt lat="45.68583" lon="6.21234">
        <ele>1531</ele>
        <time>2023-05-26T08:59:07Z</time>
      </trkpt>
      <trkpt lat="45.68587" lon="6.21273">
        <ele>1517</ele>
        <time>2023-05-26T08:59:48Z</time>
      </trkpt>
      <trkpt lat="45.68594" lon="6.21298">
        <ele>1518</ele>
        <time>2023-05-26T09:00:11Z</time>
      </trkpt>
      <trkpt lat="45.686" lon="6.21308">
        <ele>1521</ele>
        <time>2023-05-26T09:00:25Z</time>
      </trkpt>
      <trkpt lat="45.6861" lon="6.21332">
        <ele>1528</ele>
        <time>2023-05-26T09:00:59Z</time>
      </trkpt>
      <trkpt lat="45.68613" lon="6.21344">
        <ele>1529</ele>
        <time>2023-05-26T09:01:13Z</time>
      </trkpt>
      <trkpt lat="45.68614" lon="6.21357">
        <ele>1531</ele>
        <time>2023-05-26T09:01:29Z</time>
      </trkpt>
      <trkpt lat="45.68627" lon="6.21376">
        <ele>1539</ele>
        <time>2023-05-26T09:02:03Z</time>
      </trkpt>
      <trkpt lat="45.68636" lon="6.21382">
        <ele>1542</ele>
        <time>2023-05-26T09:03:15Z</time>
      </trkpt>
      <trkpt lat="45.68649" lon="6.21393">
        <ele>1552</ele>
        <time>2023-05-26T09:03:42Z</time>
      </trkpt>
      <trkpt lat="45.68655" lon="6.21398">
        <ele>1554</ele>
        <time>2023-05-26T09:03:55Z</time>
      </trkpt>
      <trkpt lat="45.6865" lon="6.21406">
        <ele>1553</ele>
        <time>2023-05-26T09:04:06Z</time>
      </trkpt>
      <trkpt lat="45.6864" lon="6.21428">
        <ele>1544</ele>
        <time>2023-05-26T09:04:37Z</time>
      </trkpt>
      <trkpt lat="45.68644" lon="6.21442">
        <ele>1547</ele>
        <time>2023-05-26T09:04:59Z</time>
      </trkpt>
      <trkpt lat="45.68663" lon="6.21449">
        <ele>1564</ele>
        <time>2023-05-26T09:05:41Z</time>
      </trkpt>
      <trkpt lat="45.68664" lon="6.21459">
        <ele>1566</ele>
        <time>2023-05-26T09:06:01Z</time>
      </trkpt>
      <trkpt lat="45.68657" lon="6.21465">
        <ele>1565</ele>
        <time>2023-05-26T09:06:09Z</time>
      </trkpt>
      <trkpt lat="45.68646" lon="6.21485">
        <ele>1570</ele>
        <time>2023-05-26T09:06:39Z</time>
      </trkpt>
      <trkpt lat="45.68639" lon="6.21494">
        <ele>1565</ele>
        <time>2023-05-26T09:06:55Z</time>
      </trkpt>
      <trkpt lat="45.68656" lon="6.21502">
        <ele>1571</ele>
        <time>2023-05-26T09:07:35Z</time>
      </trkpt>
      <trkpt lat="45.6867" lon="6.21503">
        <ele>1573</ele>
        <time>2023-05-26T09:08:00Z</time>
      </trkpt>
      <trkpt lat="45.68686" lon="6.21502">
        <ele>1576</ele>
        <time>2023-05-26T09:08:22Z</time>
      </trkpt>
      <trkpt lat="45.68679" lon="6.21514">
        <ele>1579</ele>
        <time>2023-05-26T09:08:43Z</time>
      </trkpt>
      <trkpt lat="45.68663" lon="6.21528">
        <ele>1586</ele>
        <time>2023-05-26T09:09:13Z</time>
      </trkpt>
      <trkpt lat="45.68655" lon="6.21542">
        <ele>1581</ele>
        <time>2023-05-26T09:09:33Z</time>
      </trkpt>
      <trkpt lat="45.68648" lon="6.21552">
        <ele>1577</ele>
        <time>2023-05-26T09:09:47Z</time>
      </trkpt>
      <trkpt lat="45.68658" lon="6.21556">
        <ele>1589</ele>
        <time>2023-05-26T09:10:02Z</time>
      </trkpt>
      <trkpt lat="45.68665" lon="6.21555">
        <ele>1590</ele>
        <time>2023-05-26T09:10:14Z</time>
      </trkpt>
      <trkpt lat="45.68687" lon="6.21555">
        <ele>1594</ele>
        <time>2023-05-26T09:10:48Z</time>
      </trkpt>
      <trkpt lat="45.68695" lon="6.21556">
        <ele>1595</ele>
        <time>2023-05-26T09:10:59Z</time>
      </trkpt>
      <trkpt lat="45.68692" lon="6.21568">
        <ele>1600</ele>
        <time>2023-05-26T09:11:34Z</time>
      </trkpt>
      <trkpt lat="45.68678" lon="6.21585">
        <ele>1599</ele>
        <time>2023-05-26T09:11:59Z</time>
      </trkpt>
      <trkpt lat="45.68673" lon="6.21594">
        <ele>1600</ele>
        <time>2023-05-26T09:12:11Z</time>
      </trkpt>
      <trkpt lat="45.68665" lon="6.21601">
        <ele>1599</ele>
        <time>2023-05-26T09:12:24Z</time>
      </trkpt>
      <trkpt lat="45.68659" lon="6.21611">
        <ele>1598</ele>
        <time>2023-05-26T09:12:38Z</time>
      </trkpt>
      <trkpt lat="45.68684" lon="6.21614">
        <ele>1611</ele>
        <time>2023-05-26T09:13:28Z</time>
      </trkpt>
      <trkpt lat="45.68706" lon="6.21609">
        <ele>1616</ele>
        <time>2023-05-26T09:14:03Z</time>
      </trkpt>
      <trkpt lat="45.68717" lon="6.21612">
        <ele>1617</ele>
        <time>2023-05-26T09:14:21Z</time>
      </trkpt>
      <trkpt lat="45.68737" lon="6.21615">
        <ele>1622</ele>
        <time>2023-05-26T09:14:50Z</time>
      </trkpt>
      <trkpt lat="45.68755" lon="6.21618">
        <ele>1624</ele>
        <time>2023-05-26T09:15:19Z</time>
      </trkpt>
      <trkpt lat="45.68745" lon="6.21634">
        <ele>1624</ele>
        <time>2023-05-26T09:15:51Z</time>
      </trkpt>
      <trkpt lat="45.68739" lon="6.2164">
        <ele>1623</ele>
        <time>2023-05-26T09:16:01Z</time>
      </trkpt>
      <trkpt lat="45.68709" lon="6.2166">
        <ele>1624</ele>
        <time>2023-05-26T09:16:52Z</time>
      </trkpt>
      <trkpt lat="45.68694" lon="6.21675">
        <ele>1625</ele>
        <time>2023-05-26T09:17:20Z</time>
      </trkpt>
      <trkpt lat="45.68688" lon="6.21686">
        <ele>1627</ele>
        <time>2023-05-26T09:17:31Z</time>
      </trkpt>
      <trkpt lat="45.68681" lon="6.21694">
        <ele>1634</ele>
        <time>2023-05-26T09:17:45Z</time>
      </trkpt>
      <trkpt lat="45.68674" lon="6.217">
        <ele>1634</ele>
        <time>2023-05-26T09:17:58Z</time>
      </trkpt>
      <trkpt lat="45.68686" lon="6.21707">
        <ele>1642</ele>
        <time>2023-05-26T09:19:28Z</time>
      </trkpt>
      <trkpt lat="45.68702" lon="6.21704">
        <ele>1648</ele>
        <time>2023-05-26T09:19:51Z</time>
      </trkpt>
      <trkpt lat="45.68712" lon="6.21701">
        <ele>1650</ele>
        <time>2023-05-26T09:20:08Z</time>
      </trkpt>
      <trkpt lat="45.68706" lon="6.21719">
        <ele>1651</ele>
        <time>2023-05-26T09:20:45Z</time>
      </trkpt>
      <trkpt lat="45.68701" lon="6.21728">
        <ele>1653</ele>
        <time>2023-05-26T09:20:55Z</time>
      </trkpt>
      <trkpt lat="45.68695" lon="6.21734">
        <ele>1654</ele>
        <time>2023-05-26T09:21:06Z</time>
      </trkpt>
      <trkpt lat="45.68687" lon="6.21736">
        <ele>1656</ele>
        <time>2023-05-26T09:21:16Z</time>
      </trkpt>
      <trkpt lat="45.68679" lon="6.21743">
        <ele>1657</ele>
        <time>2023-05-26T09:21:28Z</time>
      </trkpt>
      <trkpt lat="45.68671" lon="6.21745">
        <ele>1659</ele>
        <time>2023-05-26T09:21:42Z</time>
      </trkpt>
      <trkpt lat="45.68676" lon="6.21755">
        <ele>1666</ele>
        <time>2023-05-26T09:22:28Z</time>
      </trkpt>
      <trkpt lat="45.68684" lon="6.21757">
        <ele>1669</ele>
        <time>2023-05-26T09:22:41Z</time>
      </trkpt>
      <trkpt lat="45.68695" lon="6.21759">
        <ele>1671</ele>
        <time>2023-05-26T09:22:59Z</time>
      </trkpt>
      <trkpt lat="45.68701" lon="6.21762">
        <ele>1675</ele>
        <time>2023-05-26T09:23:13Z</time>
      </trkpt>
      <trkpt lat="45.68709" lon="6.21763">
        <ele>1677</ele>
        <time>2023-05-26T09:23:28Z</time>
      </trkpt>
      <trkpt lat="45.68716" lon="6.21761">
        <ele>1678</ele>
        <time>2023-05-26T09:23:39Z</time>
      </trkpt>
      <trkpt lat="45.68734" lon="6.21758">
        <ele>1682</ele>
        <time>2023-05-26T09:24:10Z</time>
      </trkpt>
      <trkpt lat="45.68726" lon="6.21772">
        <ele>1681</ele>
        <time>2023-05-26T09:24:34Z</time>
      </trkpt>
      <trkpt lat="45.68714" lon="6.21784">
        <ele>1682</ele>
        <time>2023-05-26T09:24:57Z</time>
      </trkpt>
      <trkpt lat="45.68712" lon="6.21799">
        <ele>1688</ele>
        <time>2023-05-26T09:25:49Z</time>
      </trkpt>
      <trkpt lat="45.68731" lon="6.21799">
        <ele>1689</ele>
        <time>2023-05-26T09:26:19Z</time>
      </trkpt>
      <trkpt lat="45.68726" lon="6.21812">
        <ele>1694</ele>
        <time>2023-05-26T09:27:03Z</time>
      </trkpt>
      <trkpt lat="45.68735" lon="6.21818">
        <ele>1700</ele>
        <time>2023-05-26T09:27:37Z</time>
      </trkpt>
      <trkpt lat="45.68743" lon="6.21815">
        <ele>1700</ele>
        <time>2023-05-26T09:27:48Z</time>
      </trkpt>
      <trkpt lat="45.68747" lon="6.21825">
        <ele>1709</ele>
        <time>2023-05-26T09:28:43Z</time>
      </trkpt>
      <trkpt lat="45.6875" lon="6.21838">
        <ele>1716</ele>
        <time>2023-05-26T09:30:27Z</time>
      </trkpt>
      <trkpt lat="45.68757" lon="6.21842">
        <ele>1719</ele>
        <time>2023-05-26T09:30:47Z</time>
      </trkpt>
      <trkpt lat="45.68763" lon="6.21847">
        <ele>1721</ele>
        <time>2023-05-26T09:31:08Z</time>
      </trkpt>
      <trkpt lat="45.6877" lon="6.2185">
        <ele>1725</ele>
        <time>2023-05-26T09:32:04Z</time>
      </trkpt>
      <trkpt lat="45.68779" lon="6.21848">
        <ele>1727</ele>
        <time>2023-05-26T09:32:32Z</time>
      </trkpt>
      <trkpt lat="45.6879" lon="6.21847">
        <ele>1735</ele>
        <time>2023-05-26T09:33:19Z</time>
      </trkpt>
      <trkpt lat="45.68805" lon="6.21853">
        <ele>1737</ele>
        <time>2023-05-26T09:34:53Z</time>
      </trkpt>
      <trkpt lat="45.68811" lon="6.21846">
        <ele>1743</ele>
        <time>2023-05-26T09:36:21Z</time>
      </trkpt>
      <trkpt lat="45.68819" lon="6.21844">
        <ele>1746</ele>
        <time>2023-05-26T09:37:02Z</time>
      </trkpt>
      <trkpt lat="45.68828" lon="6.21849">
        <ele>1749</ele>
        <time>2023-05-26T09:37:32Z</time>
      </trkpt>
      <trkpt lat="45.68838" lon="6.21853">
        <ele>1752</ele>
        <time>2023-05-26T09:38:00Z</time>
      </trkpt>
      <trkpt lat="45.68842" lon="6.21844">
        <ele>1757</ele>
        <time>2023-05-26T09:38:14Z</time>
      </trkpt>
      <trkpt lat="45.68862" lon="6.21849">
        <ele>1760</ele>
        <time>2023-05-26T09:38:47Z</time>
      </trkpt>
      <trkpt lat="45.6887" lon="6.21846">
        <ele>1762</ele>
        <time>2023-05-26T09:39:31Z</time>
      </trkpt>
      <trkpt lat="45.68881" lon="6.21839">
        <ele>1764</ele>
        <time>2023-05-26T09:39:45Z</time>
      </trkpt>
      <trkpt lat="45.68893" lon="6.2182">
        <ele>1767</ele>
        <time>2023-05-26T09:40:11Z</time>
      </trkpt>
      <trkpt lat="45.6891" lon="6.21799">
        <ele>1770</ele>
        <time>2023-05-26T09:40:45Z</time>
      </trkpt>
      <trkpt lat="45.68915" lon="6.2179">
        <ele>1771</ele>
        <time>2023-05-26T09:40:57Z</time>
      </trkpt>
      <trkpt lat="45.68924" lon="6.21786">
        <ele>1775</ele>
        <time>2023-05-26T09:41:29Z</time>
      </trkpt>
      <trkpt lat="45.68929" lon="6.21799">
        <ele>1777</ele>
        <time>2023-05-26T09:41:49Z</time>
      </trkpt>
      <trkpt lat="45.68929" lon="6.21809">
        <ele>1777</ele>
        <time>2023-05-26T09:42:01Z</time>
      </trkpt>
      <trkpt lat="45.68926" lon="6.21825">
        <ele>1781</ele>
        <time>2023-05-26T09:42:28Z</time>
      </trkpt>
      <trkpt lat="45.68923" lon="6.2184">
        <ele>1779</ele>
        <time>2023-05-26T09:47:23Z</time>
      </trkpt>
      <trkpt lat="45.68925" lon="6.21862">
        <ele>1776</ele>
        <time>2023-05-26T09:47:53Z</time>
      </trkpt>
      <trkpt lat="45.68922" lon="6.21876">
        <ele>1785</ele>
        <time>2023-05-26T09:48:19Z</time>
      </trkpt>
      <trkpt lat="45.68922" lon="6.2189">
        <ele>1788</ele>
        <time>2023-05-26T09:49:10Z</time>
      </trkpt>
      <trkpt lat="45.68928" lon="6.21902">
        <ele>1791</ele>
        <time>2023-05-26T09:49:26Z</time>
      </trkpt>
      <trkpt lat="45.68933" lon="6.21914">
        <ele>1793</ele>
        <time>2023-05-26T09:49:42Z</time>
      </trkpt>
      <trkpt lat="45.6894" lon="6.21924">
        <ele>1795</ele>
        <time>2023-05-26T09:50:06Z</time>
      </trkpt>
      <trkpt lat="45.68944" lon="6.21935">
        <ele>1795</ele>
        <time>2023-05-26T09:50:30Z</time>
      </trkpt>
      <trkpt lat="45.68951" lon="6.21939">
        <ele>1798</ele>
        <time>2023-05-26T09:50:51Z</time>
      </trkpt>
      <trkpt lat="45.68958" lon="6.21948">
        <ele>1800</ele>
        <time>2023-05-26T09:51:11Z</time>
      </trkpt>
      <trkpt lat="45.6897" lon="6.21949">
        <ele>1806</ele>
        <time>2023-05-26T09:51:36Z</time>
      </trkpt>
      <trkpt lat="45.68977" lon="6.21947">
        <ele>1807</ele>
        <time>2023-05-26T09:51:46Z</time>
      </trkpt>
      <trkpt lat="45.68991" lon="6.21938">
        <ele>1811</ele>
        <time>2023-05-26T09:52:09Z</time>
      </trkpt>
      <trkpt lat="45.68984" lon="6.21961">
        <ele>1808</ele>
        <time>2023-05-26T09:52:32Z</time>
      </trkpt>
      <trkpt lat="45.68978" lon="6.21967">
        <ele>1809</ele>
        <time>2023-05-26T09:52:42Z</time>
      </trkpt>
      <trkpt lat="45.68964" lon="6.21974">
        <ele>1813</ele>
        <time>2023-05-26T09:53:02Z</time>
      </trkpt>
      <trkpt lat="45.68968" lon="6.21984">
        <ele>1820</ele>
        <time>2023-05-26T09:53:43Z</time>
      </trkpt>
      <trkpt lat="45.68983" lon="6.21993">
        <ele>1823</ele>
        <time>2023-05-26T09:54:06Z</time>
      </trkpt>
      <trkpt lat="45.68976" lon="6.22">
        <ele>1824</ele>
        <time>2023-05-26T10:03:43Z</time>
      </trkpt>
      <trkpt lat="45.68965" lon="6.22005">
        <ele>1825</ele>
        <time>2023-05-26T10:04:03Z</time>
      </trkpt>
      <trkpt lat="45.68949" lon="6.22007">
        <ele>1828</ele>
        <time>2023-05-26T10:04:50Z</time>
      </trkpt>
      <trkpt lat="45.6894" lon="6.22005">
        <ele>1834</ele>
        <time>2023-05-26T10:05:15Z</time>
      </trkpt>
      <trkpt lat="45.68931" lon="6.2201">
        <ele>1835</ele>
        <time>2023-05-26T10:05:40Z</time>
      </trkpt>
      <trkpt lat="45.68923" lon="6.22015">
        <ele>1843</ele>
        <time>2023-05-26T10:06:11Z</time>
      </trkpt>
      <trkpt lat="45.68914" lon="6.22013">
        <ele>1845</ele>
        <time>2023-05-26T10:06:46Z</time>
      </trkpt>
      <trkpt lat="45.68906" lon="6.22017">
        <ele>1853</ele>
        <time>2023-05-26T10:07:23Z</time>
      </trkpt>
      <trkpt lat="45.689" lon="6.22012">
        <ele>1854</ele>
        <time>2023-05-26T10:07:37Z</time>
      </trkpt>
      <trkpt lat="45.68891" lon="6.22007">
        <ele>1860</ele>
        <time>2023-05-26T10:08:07Z</time>
      </trkpt>
      <trkpt lat="45.6888" lon="6.22006">
        <ele>1861</ele>
        <time>2023-05-26T10:08:26Z</time>
      </trkpt>
      <trkpt lat="45.68873" lon="6.22008">
        <ele>1861</ele>
        <time>2023-05-26T10:08:40Z</time>
      </trkpt>
      <trkpt lat="45.68868" lon="6.22019">
        <ele>1865</ele>
        <time>2023-05-26T10:09:04Z</time>
      </trkpt>
      <trkpt lat="45.68872" lon="6.22028">
        <ele>1867</ele>
        <time>2023-05-26T10:09:36Z</time>
      </trkpt>
      <trkpt lat="45.68874" lon="6.22043">
        <ele>1874</ele>
        <time>2023-05-26T10:10:09Z</time>
      </trkpt>
      <trkpt lat="45.68863" lon="6.2207">
        <ele>1880</ele>
        <time>2023-05-26T10:11:05Z</time>
      </trkpt>
      <trkpt lat="45.68861" lon="6.22082">
        <ele>1882</ele>
        <time>2023-05-26T10:11:56Z</time>
      </trkpt>
      <trkpt lat="45.68855" lon="6.22092">
        <ele>1884</ele>
        <time>2023-05-26T10:12:27Z</time>
      </trkpt>
      <trkpt lat="45.68856" lon="6.22105">
        <ele>1891</ele>
        <time>2023-05-26T10:13:47Z</time>
      </trkpt>
      <trkpt lat="45.68863" lon="6.22114">
        <ele>1900</ele>
        <time>2023-05-26T10:14:29Z</time>
      </trkpt>
      <trkpt lat="45.6887" lon="6.22118">
        <ele>1907</ele>
        <time>2023-05-26T10:15:02Z</time>
      </trkpt>
      <trkpt lat="45.68862" lon="6.22137">
        <ele>1920</ele>
        <time>2023-05-26T10:16:10Z</time>
      </trkpt>
      <trkpt lat="45.6887" lon="6.22144">
        <ele>1923</ele>
        <time>2023-05-26T10:16:42Z</time>
      </trkpt>
      <trkpt lat="45.68866" lon="6.22156">
        <ele>1933</ele>
        <time>2023-05-26T10:17:18Z</time>
      </trkpt>
      <trkpt lat="45.68862" lon="6.22167">
        <ele>1934</ele>
        <time>2023-05-26T10:17:56Z</time>
      </trkpt>
      <trkpt lat="45.68857" lon="6.22179">
        <ele>1936</ele>
        <time>2023-05-26T10:18:32Z</time>
      </trkpt>
      <trkpt lat="45.68864" lon="6.22182">
        <ele>1932</ele>
        <time>2023-05-26T10:18:45Z</time>
      </trkpt>
      <trkpt lat="45.68859" lon="6.2219">
        <ele>1948</ele>
        <time>2023-05-26T10:19:55Z</time>
      </trkpt>
      <trkpt lat="45.68849" lon="6.22195">
        <ele>1952</ele>
        <time>2023-05-26T10:20:28Z</time>
      </trkpt>
      <trkpt lat="45.6884" lon="6.22208">
        <ele>1959</ele>
        <time>2023-05-26T10:21:21Z</time>
      </trkpt>
      <trkpt lat="45.68834" lon="6.22217">
        <ele>1962</ele>
        <time>2023-05-26T10:26:20Z</time>
      </trkpt>
      <trkpt lat="45.68831" lon="6.22226">
        <ele>1964</ele>
        <time>2023-05-26T10:26:43Z</time>
      </trkpt>
      <trkpt lat="45.68815" lon="6.22244">
        <ele>1972</ele>
        <time>2023-05-26T10:27:28Z</time>
      </trkpt>
      <trkpt lat="45.68794" lon="6.22248">
        <ele>1976</ele>
        <time>2023-05-26T10:28:10Z</time>
      </trkpt>
      <trkpt lat="45.68775" lon="6.22248">
        <ele>1978</ele>
        <time>2023-05-26T10:29:19Z</time>
      </trkpt>
      <trkpt lat="45.68761" lon="6.22243">
        <ele>1984</ele>
        <time>2023-05-26T10:29:55Z</time>
      </trkpt>
      <trkpt lat="45.68754" lon="6.22238">
        <ele>1987</ele>
        <time>2023-05-26T10:41:08Z</time>
      </trkpt>
      <trkpt lat="45.68743" lon="6.22236">
        <ele>1981</ele>
        <time>2023-05-26T10:41:30Z</time>
      </trkpt>
      <trkpt lat="45.68737" lon="6.22241">
        <ele>1978</ele>
        <time>2023-05-26T10:41:45Z</time>
      </trkpt>
      <trkpt lat="45.68727" lon="6.22238">
        <ele>1969</ele>
        <time>2023-05-26T10:42:14Z</time>
      </trkpt>
      <trkpt lat="45.68719" lon="6.22246">
        <ele>1965</ele>
        <time>2023-05-26T10:42:36Z</time>
      </trkpt>
      <trkpt lat="45.68712" lon="6.22246">
        <ele>1961</ele>
        <time>2023-05-26T10:45:29Z</time>
      </trkpt>
      <trkpt lat="45.68704" lon="6.22237">
        <ele>1957</ele>
        <time>2023-05-26T10:45:47Z</time>
      </trkpt>
      <trkpt lat="45.68696" lon="6.22225">
        <ele>1954</ele>
        <time>2023-05-26T10:46:03Z</time>
      </trkpt>
      <trkpt lat="45.68672" lon="6.22225">
        <ele>1939</ele>
        <time>2023-05-26T10:46:44Z</time>
      </trkpt>
      <trkpt lat="45.68662" lon="6.22219">
        <ele>1937</ele>
        <time>2023-05-26T10:46:58Z</time>
      </trkpt>
      <trkpt lat="45.68629" lon="6.22211">
        <ele>1926</ele>
        <time>2023-05-26T10:47:44Z</time>
      </trkpt>
      <trkpt lat="45.68618" lon="6.22213">
        <ele>1922</ele>
        <time>2023-05-26T10:47:58Z</time>
      </trkpt>
      <trkpt lat="45.68613" lon="6.22224">
        <ele>1921</ele>
        <time>2023-05-26T10:48:11Z</time>
      </trkpt>
      <trkpt lat="45.68605" lon="6.22232">
        <ele>1924</ele>
        <time>2023-05-26T10:48:35Z</time>
      </trkpt>
      <trkpt lat="45.68601" lon="6.22237">
        <ele>1921</ele>
        <time>2023-05-26T11:41:02Z</time>
      </trkpt>
      <trkpt lat="45.68576" lon="6.22249">
        <ele>1920</ele>
        <time>2023-05-26T11:41:37Z</time>
      </trkpt>
      <trkpt lat="45.68564" lon="6.22254">
        <ele>1916</ele>
        <time>2023-05-26T11:42:50Z</time>
      </trkpt>
      <trkpt lat="45.68556" lon="6.22257">
        <ele>1914</ele>
        <time>2023-05-26T11:42:58Z</time>
      </trkpt>
      <trkpt lat="45.68545" lon="6.22258">
        <ele>1911</ele>
        <time>2023-05-26T11:43:09Z</time>
      </trkpt>
      <trkpt lat="45.68537" lon="6.22258">
        <ele>1909</ele>
        <time>2023-05-26T11:43:17Z</time>
      </trkpt>
      <trkpt lat="45.68508" lon="6.22245">
        <ele>1900</ele>
        <time>2023-05-26T11:43:54Z</time>
      </trkpt>
      <trkpt lat="45.68501" lon="6.22243">
        <ele>1898</ele>
        <time>2023-05-26T11:44:03Z</time>
      </trkpt>
      <trkpt lat="45.68478" lon="6.22241">
        <ele>1898</ele>
        <time>2023-05-26T11:44:34Z</time>
      </trkpt>
      <trkpt lat="45.6847" lon="6.22243">
        <ele>1897</ele>
        <time>2023-05-26T11:44:44Z</time>
      </trkpt>
      <trkpt lat="45.68453" lon="6.22225">
        <ele>1897</ele>
        <time>2023-05-26T11:45:28Z</time>
      </trkpt>
      <trkpt lat="45.68445" lon="6.22215">
        <ele>1897</ele>
        <time>2023-05-26T11:45:48Z</time>
      </trkpt>
      <trkpt lat="45.6842" lon="6.22198">
        <ele>1884</ele>
        <time>2023-05-26T11:46:40Z</time>
      </trkpt>
      <trkpt lat="45.684" lon="6.22188">
        <ele>1885</ele>
        <time>2023-05-26T11:47:09Z</time>
      </trkpt>
      <trkpt lat="45.68385" lon="6.22176">
        <ele>1881</ele>
        <time>2023-05-26T11:47:34Z</time>
      </trkpt>
      <trkpt lat="45.68379" lon="6.22169">
        <ele>1878</ele>
        <time>2023-05-26T11:47:43Z</time>
      </trkpt>
      <trkpt lat="45.68376" lon="6.22157">
        <ele>1875</ele>
        <time>2023-05-26T11:48:55Z</time>
      </trkpt>
      <trkpt lat="45.68373" lon="6.22137">
        <ele>1872</ele>
        <time>2023-05-26T11:49:20Z</time>
      </trkpt>
      <trkpt lat="45.68372" lon="6.22126">
        <ele>1868</ele>
        <time>2023-05-26T11:49:32Z</time>
      </trkpt>
      <trkpt lat="45.68369" lon="6.22112">
        <ele>1865</ele>
        <time>2023-05-26T11:49:47Z</time>
      </trkpt>
      <trkpt lat="45.68355" lon="6.22118">
        <ele>1853</ele>
        <time>2023-05-26T11:50:29Z</time>
      </trkpt>
      <trkpt lat="45.68346" lon="6.22127">
        <ele>1853</ele>
        <time>2023-05-26T11:50:51Z</time>
      </trkpt>
      <trkpt lat="45.6834" lon="6.22133">
        <ele>1849</ele>
        <time>2023-05-26T11:51:05Z</time>
      </trkpt>
      <trkpt lat="45.68325" lon="6.22135">
        <ele>1840</ele>
        <time>2023-05-26T11:51:45Z</time>
      </trkpt>
      <trkpt lat="45.68324" lon="6.22121">
        <ele>1836</ele>
        <time>2023-05-26T11:52:04Z</time>
      </trkpt>
      <trkpt lat="45.68313" lon="6.22118">
        <ele>1837</ele>
        <time>2023-05-26T11:52:24Z</time>
      </trkpt>
      <trkpt lat="45.6831" lon="6.22106">
        <ele>1831</ele>
        <time>2023-05-26T11:52:40Z</time>
      </trkpt>
      <trkpt lat="45.68311" lon="6.22094">
        <ele>1827</ele>
        <time>2023-05-26T11:52:57Z</time>
      </trkpt>
      <trkpt lat="45.68297" lon="6.22078">
        <ele>1811</ele>
        <time>2023-05-26T11:53:38Z</time>
      </trkpt>
      <trkpt lat="45.68291" lon="6.22065">
        <ele>1804</ele>
        <time>2023-05-26T11:53:58Z</time>
      </trkpt>
      <trkpt lat="45.6827" lon="6.2206">
        <ele>1794</ele>
        <time>2023-05-26T11:54:52Z</time>
      </trkpt>
      <trkpt lat="45.68265" lon="6.22048">
        <ele>1790</ele>
        <time>2023-05-26T11:55:13Z</time>
      </trkpt>
      <trkpt lat="45.68256" lon="6.2204">
        <ele>1785</ele>
        <time>2023-05-26T11:55:31Z</time>
      </trkpt>
      <trkpt lat="45.68247" lon="6.22037">
        <ele>1781</ele>
        <time>2023-05-26T11:55:51Z</time>
      </trkpt>
      <trkpt lat="45.6824" lon="6.22027">
        <ele>1775</ele>
        <time>2023-05-26T11:56:07Z</time>
      </trkpt>
      <trkpt lat="45.68233" lon="6.22023">
        <ele>1769</ele>
        <time>2023-05-26T11:56:18Z</time>
      </trkpt>
      <trkpt lat="45.68213" lon="6.21996">
        <ele>1756</ele>
        <time>2023-05-26T11:56:51Z</time>
      </trkpt>
      <trkpt lat="45.68207" lon="6.2199">
        <ele>1753</ele>
        <time>2023-05-26T11:56:59Z</time>
      </trkpt>
      <trkpt lat="45.68205" lon="6.21976">
        <ele>1751</ele>
        <time>2023-05-26T11:57:14Z</time>
      </trkpt>
      <trkpt lat="45.68199" lon="6.21969">
        <ele>1751</ele>
        <time>2023-05-26T11:57:24Z</time>
      </trkpt>
      <trkpt lat="45.68196" lon="6.21955">
        <ele>1752</ele>
        <time>2023-05-26T11:57:40Z</time>
      </trkpt>
      <trkpt lat="45.68191" lon="6.21947">
        <ele>1752</ele>
        <time>2023-05-26T11:57:50Z</time>
      </trkpt>
      <trkpt lat="45.68184" lon="6.21942">
        <ele>1752</ele>
        <time>2023-05-26T11:57:59Z</time>
      </trkpt>
      <trkpt lat="45.68162" lon="6.21935">
        <ele>1739</ele>
        <time>2023-05-26T11:58:44Z</time>
      </trkpt>
      <trkpt lat="45.68157" lon="6.21915">
        <ele>1737</ele>
        <time>2023-05-26T11:59:23Z</time>
      </trkpt>
      <trkpt lat="45.68148" lon="6.21914">
        <ele>1736</ele>
        <time>2023-05-26T11:59:47Z</time>
      </trkpt>
      <trkpt lat="45.68139" lon="6.21908">
        <ele>1732</ele>
        <time>2023-05-26T12:00:36Z</time>
      </trkpt>
      <trkpt lat="45.68135" lon="6.21895">
        <ele>1730</ele>
        <time>2023-05-26T12:01:44Z</time>
      </trkpt>
      <trkpt lat="45.68132" lon="6.21874">
        <ele>1724</ele>
        <time>2023-05-26T12:02:07Z</time>
      </trkpt>
      <trkpt lat="45.68128" lon="6.21863">
        <ele>1721</ele>
        <time>2023-05-26T12:02:17Z</time>
      </trkpt>
      <trkpt lat="45.68122" lon="6.21851">
        <ele>1717</ele>
        <time>2023-05-26T12:02:31Z</time>
      </trkpt>
      <trkpt lat="45.68114" lon="6.21851">
        <ele>1715</ele>
        <time>2023-05-26T12:02:41Z</time>
      </trkpt>
      <trkpt lat="45.68103" lon="6.2185">
        <ele>1712</ele>
        <time>2023-05-26T12:02:57Z</time>
      </trkpt>
      <trkpt lat="45.68093" lon="6.21854">
        <ele>1703</ele>
        <time>2023-05-26T12:03:16Z</time>
      </trkpt>
      <trkpt lat="45.68086" lon="6.21865">
        <ele>1694</ele>
        <time>2023-05-26T12:03:34Z</time>
      </trkpt>
      <trkpt lat="45.68076" lon="6.2187">
        <ele>1689</ele>
        <time>2023-05-26T12:04:05Z</time>
      </trkpt>
      <trkpt lat="45.68065" lon="6.21873">
        <ele>1690</ele>
        <time>2023-05-26T12:04:24Z</time>
      </trkpt>
      <trkpt lat="45.68063" lon="6.21841">
        <ele>1687</ele>
        <time>2023-05-26T12:04:54Z</time>
      </trkpt>
      <trkpt lat="45.6807" lon="6.21817">
        <ele>1685</ele>
        <time>2023-05-26T12:05:18Z</time>
      </trkpt>
      <trkpt lat="45.6807" lon="6.21806">
        <ele>1685</ele>
        <time>2023-05-26T12:05:28Z</time>
      </trkpt>
      <trkpt lat="45.68074" lon="6.21797">
        <ele>1683</ele>
        <time>2023-05-26T12:05:38Z</time>
      </trkpt>
      <trkpt lat="45.68081" lon="6.21784">
        <ele>1678</ele>
        <time>2023-05-26T12:05:54Z</time>
      </trkpt>
      <trkpt lat="45.68079" lon="6.2177">
        <ele>1672</ele>
        <time>2023-05-26T12:06:13Z</time>
      </trkpt>
      <trkpt lat="45.6807" lon="6.21771">
        <ele>1666</ele>
        <time>2023-05-26T12:06:30Z</time>
      </trkpt>
      <trkpt lat="45.68064" lon="6.21777">
        <ele>1665</ele>
        <time>2023-05-26T12:06:41Z</time>
      </trkpt>
      <trkpt lat="45.68056" lon="6.21778">
        <ele>1663</ele>
        <time>2023-05-26T12:06:52Z</time>
      </trkpt>
      <trkpt lat="45.68051" lon="6.2177">
        <ele>1660</ele>
        <time>2023-05-26T12:07:12Z</time>
      </trkpt>
      <trkpt lat="45.68054" lon="6.21741">
        <ele>1654</ele>
        <time>2023-05-26T12:11:08Z</time>
      </trkpt>
      <trkpt lat="45.68055" lon="6.21714">
        <ele>1647</ele>
        <time>2023-05-26T12:11:36Z</time>
      </trkpt>
      <trkpt lat="45.68053" lon="6.2167">
        <ele>1636</ele>
        <time>2023-05-26T12:12:17Z</time>
      </trkpt>
      <trkpt lat="45.68056" lon="6.21639">
        <ele>1631</ele>
        <time>2023-05-26T12:12:48Z</time>
      </trkpt>
      <trkpt lat="45.68058" lon="6.21629">
        <ele>1629</ele>
        <time>2023-05-26T12:12:57Z</time>
      </trkpt>
      <trkpt lat="45.68059" lon="6.21618">
        <ele>1628</ele>
        <time>2023-05-26T12:13:07Z</time>
      </trkpt>
      <trkpt lat="45.68063" lon="6.21581">
        <ele>1619</ele>
        <time>2023-05-26T12:13:40Z</time>
      </trkpt>
      <trkpt lat="45.68058" lon="6.21568">
        <ele>1616</ele>
        <time>2023-05-26T12:13:54Z</time>
      </trkpt>
      <trkpt lat="45.68053" lon="6.21555">
        <ele>1613</ele>
        <time>2023-05-26T12:14:09Z</time>
      </trkpt>
      <trkpt lat="45.68048" lon="6.21529">
        <ele>1609</ele>
        <time>2023-05-26T12:14:39Z</time>
      </trkpt>
      <trkpt lat="45.68053" lon="6.2152">
        <ele>1608</ele>
        <time>2023-05-26T12:16:26Z</time>
      </trkpt>
      <trkpt lat="45.6805" lon="6.21507">
        <ele>1604</ele>
        <time>2023-05-26T12:17:00Z</time>
      </trkpt>
      <trkpt lat="45.68056" lon="6.21493">
        <ele>1600</ele>
        <time>2023-05-26T12:17:18Z</time>
      </trkpt>
      <trkpt lat="45.68064" lon="6.21484">
        <ele>1597</ele>
        <time>2023-05-26T12:17:30Z</time>
      </trkpt>
      <trkpt lat="45.68073" lon="6.21473">
        <ele>1594</ele>
        <time>2023-05-26T12:17:44Z</time>
      </trkpt>
      <trkpt lat="45.68077" lon="6.21459">
        <ele>1591</ele>
        <time>2023-05-26T12:18:34Z</time>
      </trkpt>
      <trkpt lat="45.68081" lon="6.21443">
        <ele>1589</ele>
        <time>2023-05-26T12:18:48Z</time>
      </trkpt>
      <trkpt lat="45.68086" lon="6.21428">
        <ele>1588</ele>
        <time>2023-05-26T12:19:00Z</time>
      </trkpt>
      <trkpt lat="45.68088" lon="6.21418">
        <ele>1587</ele>
        <time>2023-05-26T12:19:08Z</time>
      </trkpt>
      <trkpt lat="45.6809" lon="6.21402">
        <ele>1583</ele>
        <time>2023-05-26T12:19:21Z</time>
      </trkpt>
      <trkpt lat="45.68089" lon="6.21347">
        <ele>1580</ele>
        <time>2023-05-26T12:20:01Z</time>
      </trkpt>
      <trkpt lat="45.68086" lon="6.21337">
        <ele>1580</ele>
        <time>2023-05-26T12:20:23Z</time>
      </trkpt>
      <trkpt lat="45.68086" lon="6.21326">
        <ele>1578</ele>
        <time>2023-05-26T12:20:33Z</time>
      </trkpt>
      <trkpt lat="45.68082" lon="6.21316">
        <ele>1576</ele>
        <time>2023-05-26T12:20:42Z</time>
      </trkpt>
      <trkpt lat="45.68081" lon="6.21305">
        <ele>1576</ele>
        <time>2023-05-26T12:20:49Z</time>
      </trkpt>
      <trkpt lat="45.68089" lon="6.2128">
        <ele>1574</ele>
        <time>2023-05-26T12:21:19Z</time>
      </trkpt>
      <trkpt lat="45.68094" lon="6.21272">
        <ele>1574</ele>
        <time>2023-05-26T12:21:28Z</time>
      </trkpt>
      <trkpt lat="45.68101" lon="6.21261">
        <ele>1572</ele>
        <time>2023-05-26T12:21:40Z</time>
      </trkpt>
      <trkpt lat="45.68108" lon="6.21256">
        <ele>1571</ele>
        <time>2023-05-26T12:21:48Z</time>
      </trkpt>
      <trkpt lat="45.68143" lon="6.21253">
        <ele>1566</ele>
        <time>2023-05-26T12:22:25Z</time>
      </trkpt>
      <trkpt lat="45.68157" lon="6.21248">
        <ele>1562</ele>
        <time>2023-05-26T12:23:09Z</time>
      </trkpt>
      <trkpt lat="45.68176" lon="6.2124">
        <ele>1560</ele>
        <time>2023-05-26T12:23:39Z</time>
      </trkpt>
      <trkpt lat="45.68182" lon="6.21234">
        <ele>1559</ele>
        <time>2023-05-26T12:23:48Z</time>
      </trkpt>
      <trkpt lat="45.68204" lon="6.2123">
        <ele>1559</ele>
        <time>2023-05-26T12:24:13Z</time>
      </trkpt>
      <trkpt lat="45.68235" lon="6.21218">
        <ele>1550</ele>
        <time>2023-05-26T12:24:46Z</time>
      </trkpt>
      <trkpt lat="45.68243" lon="6.21215">
        <ele>1548</ele>
        <time>2023-05-26T12:24:54Z</time>
      </trkpt>
      <trkpt lat="45.6827" lon="6.21194">
        <ele>1546</ele>
        <time>2023-05-26T12:25:26Z</time>
      </trkpt>
      <trkpt lat="45.68298" lon="6.21192">
        <ele>1544</ele>
        <time>2023-05-26T12:25:54Z</time>
      </trkpt>
      <trkpt lat="45.68308" lon="6.21196">
        <ele>1544</ele>
        <time>2023-05-26T12:26:27Z</time>
      </trkpt>
      <trkpt lat="45.68318" lon="6.21195">
        <ele>1543</ele>
        <time>2023-05-26T12:28:29Z</time>
      </trkpt>
      <trkpt lat="45.68333" lon="6.21194">
        <ele>1541</ele>
        <time>2023-05-26T12:28:44Z</time>
      </trkpt>
      <trkpt lat="45.68348" lon="6.2119">
        <ele>1540</ele>
        <time>2023-05-26T12:29:19Z</time>
      </trkpt>
      <trkpt lat="45.68362" lon="6.21183">
        <ele>1536</ele>
        <time>2023-05-26T12:29:36Z</time>
      </trkpt>
      <trkpt lat="45.6837" lon="6.21182">
        <ele>1533</ele>
        <time>2023-05-26T12:29:45Z</time>
      </trkpt>
      <trkpt lat="45.68379" lon="6.21176">
        <ele>1534</ele>
        <time>2023-05-26T12:30:03Z</time>
      </trkpt>
      <trkpt lat="45.68396" lon="6.21152">
        <ele>1537</ele>
        <time>2023-05-26T12:30:35Z</time>
      </trkpt>
      <trkpt lat="45.68415" lon="6.21154">
        <ele>1534</ele>
        <time>2023-05-26T12:31:03Z</time>
      </trkpt>
      <trkpt lat="45.68426" lon="6.21149">
        <ele>1531</ele>
        <time>2023-05-26T12:31:16Z</time>
      </trkpt>
      <trkpt lat="45.68433" lon="6.21144">
        <ele>1528</ele>
        <time>2023-05-26T12:31:24Z</time>
      </trkpt>
      <trkpt lat="45.68438" lon="6.21135">
        <ele>1526</ele>
        <time>2023-05-26T12:31:34Z</time>
      </trkpt>
      <trkpt lat="45.6846" lon="6.21114">
        <ele>1525</ele>
        <time>2023-05-26T12:32:09Z</time>
      </trkpt>
      <trkpt lat="45.68464" lon="6.21106">
        <ele>1524</ele>
        <time>2023-05-26T12:32:20Z</time>
      </trkpt>
      <trkpt lat="45.68481" lon="6.21092">
        <ele>1520</ele>
        <time>2023-05-26T12:32:43Z</time>
      </trkpt>
      <trkpt lat="45.68493" lon="6.21091">
        <ele>1515</ele>
        <time>2023-05-26T12:32:58Z</time>
      </trkpt>
      <trkpt lat="45.685" lon="6.21086">
        <ele>1510</ele>
        <time>2023-05-26T12:33:09Z</time>
      </trkpt>
      <trkpt lat="45.68508" lon="6.21087">
        <ele>1508</ele>
        <time>2023-05-26T12:33:19Z</time>
      </trkpt>
      <trkpt lat="45.68517" lon="6.21082">
        <ele>1506</ele>
        <time>2023-05-26T12:33:35Z</time>
      </trkpt>
      <trkpt lat="45.68521" lon="6.21073">
        <ele>1509</ele>
        <time>2023-05-26T12:33:45Z</time>
      </trkpt>
      <trkpt lat="45.68535" lon="6.21055">
        <ele>1508</ele>
        <time>2023-05-26T12:34:10Z</time>
      </trkpt>
      <trkpt lat="45.68549" lon="6.21017">
        <ele>1505</ele>
        <time>2023-05-26T12:34:53Z</time>
      </trkpt>
      <trkpt lat="45.68556" lon="6.20998">
        <ele>1502</ele>
        <time>2023-05-26T12:35:14Z</time>
      </trkpt>
      <trkpt lat="45.68561" lon="6.20972">
        <ele>1498</ele>
        <time>2023-05-26T12:35:38Z</time>
      </trkpt>
      <trkpt lat="45.68566" lon="6.20964">
        <ele>1498</ele>
        <time>2023-05-26T12:35:48Z</time>
      </trkpt>
      <trkpt lat="45.68575" lon="6.20962">
        <ele>1496</ele>
        <time>2023-05-26T12:36:01Z</time>
      </trkpt>
      <trkpt lat="45.68592" lon="6.20951">
        <ele>1496</ele>
        <time>2023-05-26T12:40:28Z</time>
      </trkpt>
      <trkpt lat="45.68593" lon="6.20938">
        <ele>1496</ele>
        <time>2023-05-26T12:40:45Z</time>
      </trkpt>
      <trkpt lat="45.68584" lon="6.20933">
        <ele>1496</ele>
        <time>2023-05-26T12:41:02Z</time>
      </trkpt>
      <trkpt lat="45.68569" lon="6.20917">
        <ele>1492</ele>
        <time>2023-05-26T12:41:27Z</time>
      </trkpt>
      <trkpt lat="45.68548" lon="6.20903">
        <ele>1484</ele>
        <time>2023-05-26T12:41:57Z</time>
      </trkpt>
      <trkpt lat="45.68531" lon="6.20893">
        <ele>1480</ele>
        <time>2023-05-26T12:42:17Z</time>
      </trkpt>
      <trkpt lat="45.6852" lon="6.20893">
        <ele>1480</ele>
        <time>2023-05-26T12:42:29Z</time>
      </trkpt>
      <trkpt lat="45.68513" lon="6.20896">
        <ele>1481</ele>
        <time>2023-05-26T12:42:38Z</time>
      </trkpt>
      <trkpt lat="45.68496" lon="6.20886">
        <ele>1480</ele>
        <time>2023-05-26T12:43:00Z</time>
      </trkpt>
      <trkpt lat="45.68491" lon="6.20879">
        <ele>1479</ele>
        <time>2023-05-26T12:43:08Z</time>
      </trkpt>
      <trkpt lat="45.68485" lon="6.20872">
        <ele>1476</ele>
        <time>2023-05-26T12:43:16Z</time>
      </trkpt>
      <trkpt lat="45.68473" lon="6.2086">
        <ele>1472</ele>
        <time>2023-05-26T12:43:35Z</time>
      </trkpt>
      <trkpt lat="45.68466" lon="6.20854">
        <ele>1470</ele>
        <time>2023-05-26T12:43:44Z</time>
      </trkpt>
      <trkpt lat="45.68462" lon="6.20844">
        <ele>1469</ele>
        <time>2023-05-26T12:43:54Z</time>
      </trkpt>
      <trkpt lat="45.68457" lon="6.20832">
        <ele>1463</ele>
        <time>2023-05-26T12:44:08Z</time>
      </trkpt>
      <trkpt lat="45.68449" lon="6.20825">
        <ele>1459</ele>
        <time>2023-05-26T12:44:35Z</time>
      </trkpt>
      <trkpt lat="45.68443" lon="6.20823">
        <ele>1448</ele>
        <time>2023-05-26T12:58:09Z</time>
      </trkpt>
      <trkpt lat="45.68429" lon="6.20817">
        <ele>1447</ele>
        <time>2023-05-26T12:58:26Z</time>
      </trkpt>
      <trkpt lat="45.68423" lon="6.2081">
        <ele>1443</ele>
        <time>2023-05-26T12:58:36Z</time>
      </trkpt>
      <trkpt lat="45.68404" lon="6.20814">
        <ele>1442</ele>
        <time>2023-05-26T12:58:56Z</time>
      </trkpt>
      <trkpt lat="45.68388" lon="6.20806">
        <ele>1444</ele>
        <time>2023-05-26T12:59:14Z</time>
      </trkpt>
      <trkpt lat="45.6838" lon="6.20798">
        <ele>1441</ele>
        <time>2023-05-26T12:59:28Z</time>
      </trkpt>
      <trkpt lat="45.68374" lon="6.20792">
        <ele>1439</ele>
        <time>2023-05-26T12:59:36Z</time>
      </trkpt>
      <trkpt lat="45.68365" lon="6.20783">
        <ele>1433</ele>
        <time>2023-05-26T12:59:48Z</time>
      </trkpt>
      <trkpt lat="45.6835" lon="6.20779">
        <ele>1431</ele>
        <time>2023-05-26T13:00:03Z</time>
      </trkpt>
      <trkpt lat="45.68332" lon="6.20774">
        <ele>1427</ele>
        <time>2023-05-26T13:00:19Z</time>
      </trkpt>
      <trkpt lat="45.68326" lon="6.20766">
        <ele>1426</ele>
        <time>2023-05-26T13:00:26Z</time>
      </trkpt>
      <trkpt lat="45.68318" lon="6.20762">
        <ele>1427</ele>
        <time>2023-05-26T13:00:34Z</time>
      </trkpt>
      <trkpt lat="45.68306" lon="6.2076">
        <ele>1433</ele>
        <time>2023-05-26T13:00:44Z</time>
      </trkpt>
      <trkpt lat="45.68298" lon="6.20758">
        <ele>1436</ele>
        <time>2023-05-26T13:00:52Z</time>
      </trkpt>
      <trkpt lat="45.68277" lon="6.20739">
        <ele>1439</ele>
        <time>2023-05-26T13:01:12Z</time>
      </trkpt>
      <trkpt lat="45.68271" lon="6.20732">
        <ele>1433</ele>
        <time>2023-05-26T13:01:19Z</time>
      </trkpt>
      <trkpt lat="45.68265" lon="6.2072">
        <ele>1428</ele>
        <time>2023-05-26T13:01:29Z</time>
      </trkpt>
      <trkpt lat="45.6826" lon="6.20712">
        <ele>1425</ele>
        <time>2023-05-26T13:01:37Z</time>
      </trkpt>
      <trkpt lat="45.68252" lon="6.20711">
        <ele>1424</ele>
        <time>2023-05-26T13:01:51Z</time>
      </trkpt>
      <trkpt lat="45.68242" lon="6.2071">
        <ele>1416</ele>
        <time>2023-05-26T13:02:17Z</time>
      </trkpt>
      <trkpt lat="45.68227" lon="6.20699">
        <ele>1415</ele>
        <time>2023-05-26T13:02:42Z</time>
      </trkpt>
      <trkpt lat="45.68207" lon="6.20684">
        <ele>1399</ele>
        <time>2023-05-26T13:03:15Z</time>
      </trkpt>
      <trkpt lat="45.68191" lon="6.20703">
        <ele>1386</ele>
        <time>2023-05-26T13:03:38Z</time>
      </trkpt>
      <trkpt lat="45.68183" lon="6.20705">
        <ele>1385</ele>
        <time>2023-05-26T13:03:45Z</time>
      </trkpt>
      <trkpt lat="45.6817" lon="6.20692">
        <ele>1378</ele>
        <time>2023-05-26T13:04:03Z</time>
      </trkpt>
      <trkpt lat="45.68163" lon="6.20691">
        <ele>1374</ele>
        <time>2023-05-26T13:04:12Z</time>
      </trkpt>
      <trkpt lat="45.68154" lon="6.20699">
        <ele>1369</ele>
        <time>2023-05-26T13:04:24Z</time>
      </trkpt>
      <trkpt lat="45.68145" lon="6.20694">
        <ele>1363</ele>
        <time>2023-05-26T13:04:34Z</time>
      </trkpt>
      <trkpt lat="45.6815" lon="6.20678">
        <ele>1357</ele>
        <time>2023-05-26T13:04:44Z</time>
      </trkpt>
      <trkpt lat="45.68151" lon="6.20667">
        <ele>1354</ele>
        <time>2023-05-26T13:04:52Z</time>
      </trkpt>
      <trkpt lat="45.6815" lon="6.20656">
        <ele>1351</ele>
        <time>2023-05-26T13:04:59Z</time>
      </trkpt>
      <trkpt lat="45.68143" lon="6.20654">
        <ele>1348</ele>
        <time>2023-05-26T13:05:07Z</time>
      </trkpt>
      <trkpt lat="45.68137" lon="6.20667">
        <ele>1344</ele>
        <time>2023-05-26T13:06:34Z</time>
      </trkpt>
      <trkpt lat="45.68133" lon="6.20677">
        <ele>1344</ele>
        <time>2023-05-26T13:06:43Z</time>
      </trkpt>
      <trkpt lat="45.68125" lon="6.20682">
        <ele>1343</ele>
        <time>2023-05-26T13:06:52Z</time>
      </trkpt>
      <trkpt lat="45.68106" lon="6.20682">
        <ele>1343</ele>
        <time>2023-05-26T13:07:11Z</time>
      </trkpt>
      <trkpt lat="45.6809" lon="6.20686">
        <ele>1346</ele>
        <time>2023-05-26T13:07:26Z</time>
      </trkpt>
      <trkpt lat="45.68082" lon="6.20685">
        <ele>1347</ele>
        <time>2023-05-26T13:07:33Z</time>
      </trkpt>
      <trkpt lat="45.68074" lon="6.20681">
        <ele>1348</ele>
        <time>2023-05-26T13:07:41Z</time>
      </trkpt>
      <trkpt lat="45.68061" lon="6.2066">
        <ele>1347</ele>
        <time>2023-05-26T13:07:55Z</time>
      </trkpt>
      <trkpt lat="45.68054" lon="6.20651">
        <ele>1345</ele>
        <time>2023-05-26T13:08:02Z</time>
      </trkpt>
      <trkpt lat="45.68048" lon="6.2064">
        <ele>1347</ele>
        <time>2023-05-26T13:08:10Z</time>
      </trkpt>
      <trkpt lat="45.6803" lon="6.20623">
        <ele>1346</ele>
        <time>2023-05-26T13:08:28Z</time>
      </trkpt>
      <trkpt lat="45.68022" lon="6.20619">
        <ele>1343</ele>
        <time>2023-05-26T13:08:36Z</time>
      </trkpt>
      <trkpt lat="45.68015" lon="6.20613">
        <ele>1341</ele>
        <time>2023-05-26T13:08:44Z</time>
      </trkpt>
      <trkpt lat="45.68009" lon="6.20604">
        <ele>1337</ele>
        <time>2023-05-26T13:08:52Z</time>
      </trkpt>
      <trkpt lat="45.68002" lon="6.20596">
        <ele>1335</ele>
        <time>2023-05-26T13:08:59Z</time>
      </trkpt>
      <trkpt lat="45.68001" lon="6.20572">
        <ele>1324</ele>
        <time>2023-05-26T13:09:15Z</time>
      </trkpt>
      <trkpt lat="45.68002" lon="6.2056">
        <ele>1321</ele>
        <time>2023-05-26T13:09:23Z</time>
      </trkpt>
      <trkpt lat="45.68002" lon="6.20548">
        <ele>1317</ele>
        <time>2023-05-26T13:09:31Z</time>
      </trkpt>
      <trkpt lat="45.68" lon="6.20535">
        <ele>1313</ele>
        <time>2023-05-26T13:09:39Z</time>
      </trkpt>
      <trkpt lat="45.67991" lon="6.20527">
        <ele>1311</ele>
        <time>2023-05-26T13:09:48Z</time>
      </trkpt>
      <trkpt lat="45.67984" lon="6.20528">
        <ele>1310</ele>
        <time>2023-05-26T13:09:55Z</time>
      </trkpt>
      <trkpt lat="45.67966" lon="6.20543">
        <ele>1308</ele>
        <time>2023-05-26T13:10:15Z</time>
      </trkpt>
      <trkpt lat="45.67943" lon="6.20538">
        <ele>1305</ele>
        <time>2023-05-26T13:10:40Z</time>
      </trkpt>
      <trkpt lat="45.67935" lon="6.20533">
        <ele>1302</ele>
        <time>2023-05-26T13:10:49Z</time>
      </trkpt>
      <trkpt lat="45.67936" lon="6.20522">
        <ele>1298</ele>
        <time>2023-05-26T13:10:56Z</time>
      </trkpt>
      <trkpt lat="45.67939" lon="6.2051">
        <ele>1294</ele>
        <time>2023-05-26T13:11:04Z</time>
      </trkpt>
      <trkpt lat="45.67939" lon="6.20495">
        <ele>1288</ele>
        <time>2023-05-26T13:11:14Z</time>
      </trkpt>
      <trkpt lat="45.67935" lon="6.20479">
        <ele>1286</ele>
        <time>2023-05-26T13:11:24Z</time>
      </trkpt>
      <trkpt lat="45.67935" lon="6.20469">
        <ele>1286</ele>
        <time>2023-05-26T13:11:32Z</time>
      </trkpt>
      <trkpt lat="45.67927" lon="6.20466">
        <ele>1282</ele>
        <time>2023-05-26T13:11:42Z</time>
      </trkpt>
      <trkpt lat="45.67911" lon="6.2047">
        <ele>1279</ele>
        <time>2023-05-26T13:11:57Z</time>
      </trkpt>
      <trkpt lat="45.67888" lon="6.20489">
        <ele>1268</ele>
        <time>2023-05-26T13:12:20Z</time>
      </trkpt>
      <trkpt lat="45.67881" lon="6.20497">
        <ele>1262</ele>
        <time>2023-05-26T13:12:29Z</time>
      </trkpt>
      <trkpt lat="45.67866" lon="6.20517">
        <ele>1259</ele>
        <time>2023-05-26T13:12:47Z</time>
      </trkpt>
      <trkpt lat="45.67856" lon="6.20519">
        <ele>1259</ele>
        <time>2023-05-26T13:12:56Z</time>
      </trkpt>
      <trkpt lat="45.67848" lon="6.20518">
        <ele>1253</ele>
        <time>2023-05-26T13:13:05Z</time>
      </trkpt>
      <trkpt lat="45.6784" lon="6.20513">
        <ele>1249</ele>
        <time>2023-05-26T13:13:13Z</time>
      </trkpt>
      <trkpt lat="45.67828" lon="6.20513">
        <ele>1246</ele>
        <time>2023-05-26T13:13:23Z</time>
      </trkpt>
      <trkpt lat="45.67814" lon="6.20521">
        <ele>1237</ele>
        <time>2023-05-26T13:13:36Z</time>
      </trkpt>
      <trkpt lat="45.67793" lon="6.20517">
        <ele>1236</ele>
        <time>2023-05-26T13:13:51Z</time>
      </trkpt>
      <trkpt lat="45.67785" lon="6.20512">
        <ele>1236</ele>
        <time>2023-05-26T13:13:58Z</time>
      </trkpt>
      <trkpt lat="45.67777" lon="6.20507">
        <ele>1240</ele>
        <time>2023-05-26T13:14:05Z</time>
      </trkpt>
      <trkpt lat="45.67773" lon="6.20499">
        <ele>1238</ele>
        <time>2023-05-26T13:14:12Z</time>
      </trkpt>
      <trkpt lat="45.67776" lon="6.20489">
        <ele>1233</ele>
        <time>2023-05-26T13:14:19Z</time>
      </trkpt>
      <trkpt lat="45.67786" lon="6.20472">
        <ele>1218</ele>
        <time>2023-05-26T13:14:35Z</time>
      </trkpt>
      <trkpt lat="45.67787" lon="6.20461">
        <ele>1214</ele>
        <time>2023-05-26T13:14:44Z</time>
      </trkpt>
      <trkpt lat="45.67782" lon="6.20452">
        <ele>1214</ele>
        <time>2023-05-26T13:14:52Z</time>
      </trkpt>
      <trkpt lat="45.67775" lon="6.20445">
        <ele>1213</ele>
        <time>2023-05-26T13:15:01Z</time>
      </trkpt>
      <trkpt lat="45.67767" lon="6.20445">
        <ele>1214</ele>
        <time>2023-05-26T13:15:09Z</time>
      </trkpt>
      <trkpt lat="45.67756" lon="6.20448">
        <ele>1217</ele>
        <time>2023-05-26T13:15:19Z</time>
      </trkpt>
      <trkpt lat="45.67748" lon="6.20463">
        <ele>1215</ele>
        <time>2023-05-26T13:15:32Z</time>
      </trkpt>
      <trkpt lat="45.67745" lon="6.20475">
        <ele>1212</ele>
        <time>2023-05-26T13:15:39Z</time>
      </trkpt>
      <trkpt lat="45.6774" lon="6.20487">
        <ele>1211</ele>
        <time>2023-05-26T13:15:48Z</time>
      </trkpt>
      <trkpt lat="45.67731" lon="6.20482">
        <ele>1210</ele>
        <time>2023-05-26T13:15:57Z</time>
      </trkpt>
      <trkpt lat="45.67722" lon="6.20474">
        <ele>1209</ele>
        <time>2023-05-26T13:16:06Z</time>
      </trkpt>
      <trkpt lat="45.67692" lon="6.20442">
        <ele>1207</ele>
        <time>2023-05-26T13:16:36Z</time>
      </trkpt>
      <trkpt lat="45.67665" lon="6.20429">
        <ele>1206</ele>
        <time>2023-05-26T13:16:57Z</time>
      </trkpt>
      <trkpt lat="45.67657" lon="6.20424">
        <ele>1201</ele>
        <time>2023-05-26T13:17:04Z</time>
      </trkpt>
      <trkpt lat="45.67642" lon="6.20409">
        <ele>1202</ele>
        <time>2023-05-26T13:17:18Z</time>
      </trkpt>
      <trkpt lat="45.67633" lon="6.20404">
        <ele>1201</ele>
        <time>2023-05-26T13:17:26Z</time>
      </trkpt>
      <trkpt lat="45.67616" lon="6.20394">
        <ele>1198</ele>
        <time>2023-05-26T13:17:41Z</time>
      </trkpt>
      <trkpt lat="45.67597" lon="6.20391">
        <ele>1192</ele>
        <time>2023-05-26T13:17:57Z</time>
      </trkpt>
      <trkpt lat="45.67579" lon="6.20386">
        <ele>1189</ele>
        <time>2023-05-26T13:18:13Z</time>
      </trkpt>
      <trkpt lat="45.67571" lon="6.20382">
        <ele>1186</ele>
        <time>2023-05-26T13:18:20Z</time>
      </trkpt>
      <trkpt lat="45.67554" lon="6.20373">
        <ele>1176</ele>
        <time>2023-05-26T13:18:37Z</time>
      </trkpt>
      <trkpt lat="45.67546" lon="6.20365">
        <ele>1176</ele>
        <time>2023-05-26T13:18:46Z</time>
      </trkpt>
      <trkpt lat="45.67542" lon="6.20353">
        <ele>1174</ele>
        <time>2023-05-26T13:18:57Z</time>
      </trkpt>
      <trkpt lat="45.67536" lon="6.20343">
        <ele>1173</ele>
        <time>2023-05-26T13:19:06Z</time>
      </trkpt>
      <trkpt lat="45.67521" lon="6.20328">
        <ele>1169</ele>
        <time>2023-05-26T13:19:23Z</time>
      </trkpt>
      <trkpt lat="45.67515" lon="6.20318">
        <ele>1165</ele>
        <time>2023-05-26T13:19:33Z</time>
      </trkpt>
      <trkpt lat="45.67512" lon="6.2029">
        <ele>1161</ele>
        <time>2023-05-26T13:19:50Z</time>
      </trkpt>
      <trkpt lat="45.67513" lon="6.2028">
        <ele>1157</ele>
        <time>2023-05-26T13:19:57Z</time>
      </trkpt>
      <trkpt lat="45.67511" lon="6.20266">
        <ele>1152</ele>
        <time>2023-05-26T13:20:07Z</time>
      </trkpt>
      <trkpt lat="45.67499" lon="6.20264">
        <ele>1140</ele>
        <time>2023-05-26T13:20:20Z</time>
      </trkpt>
      <trkpt lat="45.67493" lon="6.20269">
        <ele>1138</ele>
        <time>2023-05-26T13:20:26Z</time>
      </trkpt>
      <trkpt lat="45.67487" lon="6.20276">
        <ele>1136</ele>
        <time>2023-05-26T13:20:34Z</time>
      </trkpt>
      <trkpt lat="45.6745" lon="6.20335">
        <ele>1136</ele>
        <time>2023-05-26T13:21:28Z</time>
      </trkpt>
      <trkpt lat="45.6744" lon="6.20358">
        <ele>1134</ele>
        <time>2023-05-26T13:21:48Z</time>
      </trkpt>
      <trkpt lat="45.67431" lon="6.20358">
        <ele>1134</ele>
        <time>2023-05-26T13:22:03Z</time>
      </trkpt>
      <trkpt lat="45.67425" lon="6.2033">
        <ele>1119</ele>
        <time>2023-05-26T13:22:20Z</time>
      </trkpt>
      <trkpt lat="45.67426" lon="6.20316">
        <ele>1115</ele>
        <time>2023-05-26T13:22:29Z</time>
      </trkpt>
      <trkpt lat="45.67433" lon="6.20288">
        <ele>1097</ele>
        <time>2023-05-26T13:22:48Z</time>
      </trkpt>
      <trkpt lat="45.67434" lon="6.20273">
        <ele>1090</ele>
        <time>2023-05-26T13:22:57Z</time>
      </trkpt>
      <trkpt lat="45.67432" lon="6.20259">
        <ele>1089</ele>
        <time>2023-05-26T13:23:04Z</time>
      </trkpt>
      <trkpt lat="45.67433" lon="6.20202">
        <ele>1078</ele>
        <time>2023-05-26T13:23:35Z</time>
      </trkpt>
      <trkpt lat="45.67425" lon="6.20177">
        <ele>1075</ele>
        <time>2023-05-26T13:23:49Z</time>
      </trkpt>
      <trkpt lat="45.67423" lon="6.20151">
        <ele>1072</ele>
        <time>2023-05-26T13:24:03Z</time>
      </trkpt>
      <trkpt lat="45.6742" lon="6.20139">
        <ele>1067</ele>
        <time>2023-05-26T13:24:11Z</time>
      </trkpt>
      <trkpt lat="45.67412" lon="6.20114">
        <ele>1063</ele>
        <time>2023-05-26T13:24:28Z</time>
      </trkpt>
      <trkpt lat="45.67396" lon="6.20075">
        <ele>1059</ele>
        <time>2023-05-26T13:24:54Z</time>
      </trkpt>
      <trkpt lat="45.67378" lon="6.20048">
        <ele>1060</ele>
        <time>2023-05-26T13:25:16Z</time>
      </trkpt>
      <trkpt lat="45.67371" lon="6.20035">
        <ele>1062</ele>
        <time>2023-05-26T13:25:26Z</time>
      </trkpt>
      <trkpt lat="45.67364" lon="6.20021">
        <ele>1064</ele>
        <time>2023-05-26T13:25:37Z</time>
      </trkpt>
      <trkpt lat="45.67356" lon="6.20017">
        <ele>1060</ele>
        <time>2023-05-26T13:25:44Z</time>
      </trkpt>
      <trkpt lat="45.67341" lon="6.20027">
        <ele>1059</ele>
        <time>2023-05-26T13:25:59Z</time>
      </trkpt>
      <trkpt lat="45.67338" lon="6.20037">
        <ele>1058</ele>
        <time>2023-05-26T13:26:08Z</time>
      </trkpt>
      <trkpt lat="45.67339" lon="6.20047">
        <ele>1057</ele>
        <time>2023-05-26T13:26:23Z</time>
      </trkpt>
    </trkseg>
  </trk>
</gpx>